Time;durP1;ratioP1;P1;durP2;ratioP2;P2;SDS_P1;SDS_P2;PMS_P1;PMS_P2;Temp;Humidity;BMP_temperature;BMP_pressure;BME280_temperature;BME280_humidity;BME280_pressure;Samples;Min_cycle;Max_cycle;Signal;HPM_P1;HPM_P2
2023/05/15 00:02:18;;;;;;;13.82;5.43;;;;;;;12.74;100.00;98840.91;5155697;27;20061;-58
2023/05/15 00:04:44;;;;;;;9.02;5.45;;;;;;;12.56;100.00;98821.56;5155680;27;20092;-59
2023/05/15 00:07:10;;;;;;;10.15;6.05;;;;;;;12.56;100.00;98822.38;5155487;27;20408;-61
2023/05/15 00:09:36;;;;;;;7.55;5.03;;;;;;;12.51;100.00;98813.72;5155707;27;20080;-55
2023/05/15 00:12:02;;;;;;;12.75;6.00;;;;;;;12.48;100.00;98810.53;5155388;27;20556;-53
2023/05/15 00:14:28;;;;;;;7.15;5.35;;;;;;;12.52;100.00;98805.06;5155358;27;20495;-57
2023/05/15 00:16:54;;;;;;;8.30;5.53;;;;;;;12.57;100.00;98823.94;5155429;27;20054;-55
2023/05/15 00:19:21;;;;;;;9.50;6.15;;;;;;;12.54;100.00;98826.69;5155358;27;20050;-56
2023/05/15 00:21:47;;;;;;;13.88;5.32;;;;;;;12.53;100.00;98809.41;5154720;27;20073;-59
2023/05/15 00:24:12;;;;;;;12.55;6.70;;;;;;;12.48;100.00;98796.03;5154088;27;20403;-57
2023/05/15 00:26:38;;;;;;;12.95;5.35;;;;;;;12.25;100.00;98782.56;5138304;27;20424;-56
2023/05/15 00:29:04;;;;;;;9.88;6.07;;;;;;;12.25;100.00;98742.13;5155376;27;20043;-54
2023/05/15 00:31:32;;;;;;;9.90;5.90;;;;;;;12.32;100.00;98748.81;5155365;27;20154;-56
2023/05/15 00:33:58;;;;;;;8.27;5.28;;;;;;;12.39;100.00;98770.84;5155214;27;20050;-52
2023/05/15 00:36:25;;;;;;;7.63;5.50;;;;;;;12.38;100.00;98756.31;5155081;27;20078;-59
2023/05/15 00:38:51;;;;;;;11.00;5.63;;;;;;;12.45;100.00;98777.53;5155162;27;20054;-55
2023/05/15 00:41:17;;;;;;;8.10;5.07;;;;;;;12.45;100.00;98781.06;5155185;27;20133;-56
2023/05/15 00:43:44;;;;;;;8.93;5.20;;;;;;;12.37;100.00;98759.47;5155012;27;20438;-58
2023/05/15 00:46:12;;;;;;;9.10;5.60;;;;;;;12.43;100.00;98780.69;5155047;27;20133;-56
2023/05/15 00:48:38;;;;;;;12.85;5.90;;;;;;;12.34;100.00;98755.50;5154848;27;20416;-62
2023/05/15 00:51:05;;;;;;;13.35;6.03;;;;;;;12.15;100.00;98729.13;5154050;27;20061;-54
2023/05/15 00:53:31;;;;;;;9.52;6.00;;;;;;;12.17;100.00;98715.78;5154055;27;20042;-55
2023/05/15 00:55:58;;;;;;;12.70;6.53;;;;;;;12.09;100.00;98689.44;5155725;27;20391;-56
2023/05/15 00:58:26;;;;;;;10.00;5.80;;;;;;;12.10;100.00;98680.03;5158418;27;20046;-57
2023/05/15 01:01:11;;;;;;;9.07;5.85;;;;;;;11.96;100.00;98674.47;5158476;27;20047;-53
2023/05/15 01:04:01;;;;;;;9.40;5.50;;;;;;;12.06;100.00;98667.44;5158327;27;20057;-52
2023/05/15 01:06:29;;;;;;;9.93;5.57;;;;;;;12.01;100.00;98679.59;5158254;27;20075;-56
2023/05/15 01:08:56;;;;;;;8.98;5.93;;;;;;;11.94;100.00;98638.38;5158226;27;20050;-58
2023/05/15 01:11:41;;;;;;;9.05;5.90;;;;;;;12.13;100.00;98667.47;5157069;27;20130;-53
2023/05/15 01:14:08;;;;;;;9.18;5.25;;;;;;;12.08;100.00;98649.41;5143138;27;20047;-59
2023/05/15 01:16:35;;;;;;;9.27;5.55;;;;;;;12.08;100.00;98657.66;5158302;27;20374;-60
2023/05/15 01:19:01;;;;;;;10.00;6.35;;;;;;;12.10;100.00;98654.53;5158250;27;20082;-54
2023/05/15 01:21:56;;;;;;;8.50;5.78;;;;;;;12.02;100.00;98659.19;5158180;27;20118;-58
2023/05/15 01:25:05;;;;;;;8.77;5.82;;;;;;;12.13;100.00;98670.22;5157989;27;20074;-53
2023/05/15 01:27:36;;;;;;;15.95;6.10;;;;;;;12.21;100.00;98664.38;5076643;28;20052;-55
2023/05/15 01:30:11;;;;;;;9.88;5.93;;;;;;;12.09;100.00;98642.72;5076718;28;20445;-55
2023/05/15 01:32:46;;;;;;;12.30;5.68;;;;;;;12.00;100.00;98626.63;5118484;27;20138;-53
2023/05/15 01:35:18;;;;;;;10.35;6.50;;;;;;;12.02;100.00;98598.75;5157826;27;20051;-51
2023/05/15 01:37:48;;;;;;;9.73;6.43;;;;;;;11.88;100.00;98588.50;5157841;27;20145;-53
2023/05/15 01:40:16;;;;;;;12.15;6.07;;;;;;;11.89;100.00;98583.81;5157711;27;20074;-60
2023/05/15 01:42:53;;;;;;;8.43;6.35;;;;;;;11.92;100.00;98585.78;5157601;27;20062;-55
2023/05/15 01:45:20;;;;;;;10.40;5.57;;;;;;;11.97;100.00;98602.69;5157898;27;20061;-55
2023/05/15 01:47:48;;;;;;;13.63;5.80;;;;;;;11.90;100.00;98580.69;5157732;27;20047;-50
2023/05/15 01:50:16;;;;;;;12.07;6.85;;;;;;;11.79;100.00;98555.09;5157740;27;20114;-59
2023/05/15 01:52:47;;;;;;;8.35;6.40;;;;;;;11.70;100.00;98527.25;5157688;27;20335;-59
2023/05/15 01:55:14;;;;;;;10.75;6.72;;;;;;;11.60;100.00;98512.31;5157590;27;20126;-55
2023/05/15 01:57:41;;;;;;;7.15;5.38;;;;;;;11.64;100.00;98506.81;5157405;27;20118;-59
2023/05/15 02:00:11;;;;;;;13.60;6.07;;;;;;;11.57;100.00;98512.28;5157457;27;20057;-57
2023/05/15 02:02:38;;;;;;;9.05;5.97;;;;;;;11.62;100.00;98515.44;5157435;27;20056;-61
2023/05/15 02:05:05;;;;;;;6.28;5.68;;;;;;;11.52;100.00;98503.25;5157169;27;20072;-60
2023/05/15 02:07:32;;;;;;;8.73;5.75;;;;;;;11.74;100.00;98545.28;5156364;27;20061;-57
2023/05/15 02:10:00;;;;;;;14.73;6.22;;;;;;;11.68;100.00;98527.63;5156108;27;20073;-58
2023/05/15 02:12:27;;;;;;;17.40;6.20;;;;;;;11.69;100.00;98518.19;5140521;27;20047;-59
2023/05/15 02:14:57;;;;;;;10.05;6.28;;;;;;;11.65;100.00;98511.13;5157246;27;20492;-56
2023/05/15 02:17:23;;;;;;;13.40;6.10;;;;;;;11.62;100.00;98506.41;5157310;27;20042;-61
2023/05/15 02:19:49;;;;;;;11.13;5.80;;;;;;;11.40;100.00;98486.34;5157057;27;20043;-59
2023/05/15 02:22:15;;;;;;;14.75;6.35;;;;;;;11.24;100.00;98465.50;5157174;27;20335;-57
2023/05/15 02:24:41;;;;;;;8.80;6.00;;;;;;;11.18;100.00;98433.34;5157089;27;20047;-55
2023/05/15 02:27:16;;;;;;;9.02;5.43;;;;;;;11.46;100.00;98455.41;5156940;27;20133;-53
2023/05/15 02:30:11;;;;;;;11.13;5.38;;;;;;;11.58;100.00;98489.94;5156939;27;20305;-59
2023/05/15 02:32:47;;;;;;;17.08;6.07;;;;;;;11.69;100.00;98514.66;5157161;27;20073;-56
2023/05/15 02:35:20;;;;;;;10.77;6.47;;;;;;;11.68;100.00;98499.38;5156960;27;20047;-54
2023/05/15 02:37:48;;;;;;;10.45;6.00;;;;;;;11.70;100.00;98508.03;5156769;27;20149;-57
2023/05/15 02:40:15;;;;;;;9.27;6.03;;;;;;;11.76;100.00;98509.19;5156871;27;20146;-57
2023/05/15 02:42:44;;;;;;;9.20;5.72;;;;;;;12.00;100.00;98504.97;5156676;27;20472;-59
2023/05/15 02:45:11;;;;;;;8.27;5.75;;;;;;;12.20;100.00;98519.13;5156780;27;20358;-55
2023/05/15 02:47:39;;;;;;;13.40;6.00;;;;;;;12.31;100.00;98521.88;5156634;27;20057;-58
2023/05/15 02:50:07;;;;;;;14.05;6.30;;;;;;;12.82;100.00;98570.19;5156571;27;20049;-59
2023/05/15 02:52:33;;;;;;;10.52;5.82;;;;;;;13.35;100.00;98654.69;5156243;27;20042;-55
2023/05/15 02:54:59;;;;;;;9.55;6.50;;;;;;;13.82;100.00;98710.44;5155152;27;20321;-58
2023/05/15 02:57:25;;;;;;;9.68;5.82;;;;;;;14.01;100.00;98723.00;5156504;27;20062;-61
2023/05/15 02:59:52;;;;;;;7.40;5.88;;;;;;;14.58;100.00;98808.31;5156683;27;20082;-60
2023/05/15 03:02:18;;;;;;;7.65;5.72;;;;;;;14.74;100.00;98832.69;5156388;27;20137;-57
2023/05/15 03:04:44;;;;;;;9.02;5.78;;;;;;;14.99;100.00;98847.13;5156533;27;20053;-56
2023/05/15 03:07:11;;;;;;;8.13;6.25;;;;;;;15.28;100.00;98860.78;5156317;27;20149;-58
2023/05/15 03:09:37;;;;;;;9.07;6.45;;;;;;;15.48;100.00;98911.56;5156423;27;20047;-61
2023/05/15 03:12:03;;;;;;;10.27;5.82;;;;;;;15.88;100.00;98927.91;5156273;27;20137;-62
2023/05/15 03:14:29;;;;;;;8.48;5.57;;;;;;;16.07;100.00;98932.91;5156184;27;20133;-54
2023/05/15 03:16:55;;;;;;;8.02;6.20;;;;;;;16.07;100.00;98976.38;5156288;27;20137;-52
2023/05/15 03:19:21;;;;;;;9.63;6.22;;;;;;;16.40;100.00;98963.84;5155079;27;20078;-56
2023/05/15 03:21:47;;;;;;;14.90;6.20;;;;;;;16.81;100.00;99007.38;5156017;27;20423;-57
2023/05/15 03:24:13;;;;;;;6.43;5.57;;;;;;;16.71;100.00;99000.72;5154895;27;20056;-56
2023/05/15 03:26:41;;;;;;;8.23;6.03;;;;;;;17.34;100.00;99031.72;5155862;27;20051;-56
2023/05/15 03:29:07;;;;;;;8.68;5.50;;;;;;;17.32;100.00;99039.66;5156160;27;20051;-61
2023/05/15 03:31:33;;;;;;;11.55;5.82;;;;;;;17.99;100.00;99061.44;5155954;27;20440;-56
2023/05/15 03:33:59;;;;;;;8.52;6.45;;;;;;;18.11;100.00;99074.75;5155997;27;20055;-53
2023/05/15 03:36:24;;;;;;;13.57;5.75;;;;;;;18.42;100.00;99078.22;5155885;27;20106;-55
2023/05/15 03:38:51;;;;;;;8.90;5.88;;;;;;;18.79;100.00;99101.47;5155999;27;20055;-54
2023/05/15 03:41:17;;;;;;;9.63;6.50;;;;;;;19.03;100.00;99075.28;5155917;27;20065;-52
2023/05/15 03:43:43;;;;;;;8.13;5.40;;;;;;;19.15;100.00;99082.19;5155890;27;20046;-53
2023/05/15 03:46:09;;;;;;;8.65;5.50;;;;;;;19.18;100.00;99092.47;5155831;27;20133;-56
2023/05/15 03:48:35;;;;;;;11.18;5.45;;;;;;;19.25;100.00;99099.91;5155619;27;20468;-59
2023/05/15 03:51:01;;;;;;;9.45;6.13;;;;;;;19.56;96.82;99100.50;5155741;27;20054;-60
2023/05/15 03:53:27;;;;;;;8.65;5.63;;;;;;;20.28;92.98;99110.94;5154743;27;20046;-61
2023/05/15 03:55:53;;;;;;;8.00;5.75;;;;;;;20.87;86.75;99120.34;5155334;27;20107;-57
2023/05/15 03:58:19;;;;;;;7.60;5.70;;;;;;;20.87;90.21;99109.19;5155646;27;20141;-61
2023/05/15 04:00:45;;;;;;;13.38;5.68;;;;;;;20.37;96.57;99107.56;5155652;27;20081;-56
2023/05/15 04:03:11;;;;;;;6.63;5.82;;;;;;;21.01;84.58;99131.13;5155720;27;20053;-54
2023/05/15 04:05:37;;;;;;;7.65;6.55;;;;;;;20.82;90.76;99121.63;5155600;27;20074;-57
2023/05/15 04:08:03;;;;;;;6.55;5.93;;;;;;;21.35;84.08;99127.88;5155455;27;20412;-55
2023/05/15 04:10:30;;;;;;;9.80;5.78;;;;;;;21.00;84.98;99128.78;5155619;27;20141;-61
2023/05/15 04:13:15;;;;;;;6.78;5.82;;;;;;;20.29;88.56;99120.06;5155481;27;20051;-62
2023/05/15 04:27:35;;;;;;;9.35;5.75;;;;;;;19.59;99.21;99096.06;5139207;27;20317;-55
2023/05/15 04:30:01;;;;;;;14.00;6.50;;;;;;;19.60;100.00;99076.19;5155966;27;20415;-60
2023/05/15 04:32:27;;;;;;;6.35;5.57;;;;;;;20.18;99.90;99084.91;5158974;27;20332;-54
2023/05/15 04:34:53;;;;;;;10.95;5.40;;;;;;;20.49;94.68;99092.94;5158693;27;20134;-59
2023/05/15 04:37:19;;;;;;;11.68;6.80;;;;;;;21.08;97.22;99091.16;5158743;27;20062;-62
2023/05/15 04:39:45;;;;;;;8.50;5.30;;;;;;;20.97;89.64;99101.78;5158807;27;20172;-62
2023/05/15 04:42:11;;;;;;;10.65;6.03;;;;;;;21.29;93.38;99096.19;5158589;27;20142;-62
2023/05/15 04:44:37;;;;;;;8.23;5.32;;;;;;;22.04;86.80;99107.25;5158548;27;20111;-60
2023/05/15 04:47:04;;;;;;;7.65;5.43;;;;;;;22.75;87.19;99102.25;5158347;27;20078;-58
2023/05/15 04:49:30;;;;;;;6.63;4.70;;;;;;;22.70;81.44;99116.78;5158198;27;20418;-58
2023/05/15 04:51:56;;;;;;;10.43;5.07;;;;;;;22.04;83.50;99113.59;5157146;27;20146;-57
2023/05/15 04:54:22;;;;;;;8.18;5.70;;;;;;;22.59;83.57;99119.13;5157630;27;20053;-60
2023/05/15 04:56:48;;;;;;;9.50;6.03;;;;;;;22.22;84.61;99115.09;5158365;27;20101;-60
2023/05/15 04:59:14;;;;;;;7.47;4.65;;;;;;;22.60;82.99;99114.34;5158423;27;20187;-61
2023/05/15 05:01:40;;;;;;;11.07;4.93;;;;;;;23.20;78.53;99122.78;5158386;27;20047;-57
2023/05/15 05:04:07;;;;;;;7.93;4.00;;;;;;;22.41;78.48;99125.28;5158316;27;20160;-59
2023/05/15 05:06:33;;;;;;;9.15;4.82;;;;;;;23.12;74.13;99121.44;5158092;27;20416;-58
2023/05/15 05:08:59;;;;;;;9.68;5.60;;;;;;;24.87;69.45;99126.94;5158200;27;20069;-57
2023/05/15 05:11:24;;;;;;;12.55;5.53;;;;;;;24.62;67.73;99136.38;5158101;27;20122;-56
2023/05/15 05:13:50;;;;;;;8.90;4.63;;;;;;;25.20;65.20;99132.03;5158516;27;20412;-57
2023/05/15 05:16:16;;;;;;;8.35;4.70;;;;;;;25.35;63.45;99126.56;5158417;27;20103;-58
2023/05/15 05:18:42;;;;;;;6.40;5.25;;;;;;;24.38;64.55;99130.44;5157896;27;20142;-60
2023/05/15 05:21:09;;;;;;;10.15;5.03;;;;;;;24.65;63.92;99123.44;5157101;27;20146;-60
2023/05/15 05:23:35;;;;;;;9.02;4.93;;;;;;;26.02;60.93;99125.63;5156621;27;20058;-56
2023/05/15 05:26:02;;;;;;;8.38;4.80;;;;;;;26.02;61.80;99122.00;5157929;27;20079;-56
2023/05/15 05:28:28;;;;;;;13.98;5.50;;;;;;;26.38;61.27;99123.94;5157710;27;20054;-59
2023/05/15 05:30:54;;;;;;;9.25;5.13;;;;;;;26.34;60.28;99125.38;5157640;27;20620;-58
2023/05/15 05:33:20;;;;;;;7.05;4.63;;;;;;;26.72;59.85;99111.50;5157743;27;20046;-56
2023/05/15 05:35:47;;;;;;;11.00;4.80;;;;;;;27.09;59.50;99122.53;5157551;27;20046;-54
2023/05/15 05:38:13;;;;;;;5.43;4.55;;;;;;;27.18;58.63;99121.69;5157445;27;20047;-58
2023/05/15 05:40:39;;;;;;;9.07;4.57;;;;;;;26.71;57.97;99123.22;5157466;27;20137;-54
2023/05/15 05:43:05;;;;;;;6.32;4.63;;;;;;;26.41;59.23;99108.16;5156329;27;20137;-59
2023/05/15 05:45:31;;;;;;;6.53;4.28;;;;;;;26.61;60.15;99113.25;5157214;27;20082;-60
2023/05/15 05:47:57;;;;;;;6.25;4.55;;;;;;;27.74;56.92;99116.41;5157156;27;20053;-62
2023/05/15 05:50:24;;;;;;;9.85;4.70;;;;;;;27.29;56.93;99113.50;5156546;27;20086;-56
2023/05/15 05:52:50;;;;;;;14.02;4.80;;;;;;;28.11;55.56;99122.47;5155806;27;20051;-65
2023/05/15 05:55:16;;;;;;;9.43;4.68;;;;;;;27.87;55.18;99105.66;5157188;27;20397;-59
2023/05/15 05:57:42;;;;;;;9.77;4.63;;;;;;;28.52;54.87;99108.53;5157277;27;20366;-58
2023/05/15 06:00:09;;;;;;;8.57;4.43;;;;;;;28.14;55.53;99102.53;5157018;27;20552;-55
2023/05/15 06:02:36;;;;;;;9.60;4.10;;;;;;;28.14;54.44;99101.78;5157080;27;20047;-58
2023/05/15 06:05:03;;;;;;;8.25;4.15;;;;;;;28.13;54.94;99098.19;5156929;27;20137;-55
2023/05/15 06:07:29;;;;;;;8.48;4.55;;;;;;;27.76;55.66;99099.78;5157052;27;20153;-55
2023/05/15 06:09:55;;;;;;;7.70;4.80;;;;;;;28.77;54.11;99099.44;5156861;27;20046;-55
2023/05/15 06:12:22;;;;;;;11.60;4.60;;;;;;;28.80;53.58;99097.69;5156984;27;20328;-63
2023/05/15 06:14:48;;;;;;;7.88;4.03;;;;;;;26.92;55.90;99096.81;5156873;27;20198;-62
2023/05/15 06:17:14;;;;;;;9.65;4.30;;;;;;;28.92;53.94;99099.38;5156754;27;20043;-62
2023/05/15 06:19:40;;;;;;;14.07;4.32;;;;;;;29.31;52.86;99096.31;5155853;27;20050;-57
2023/05/15 06:22:06;;;;;;;7.07;4.00;;;;;;;29.63;52.21;99090.81;5155569;27;20053;-51
2023/05/15 06:24:31;;;;;;;13.10;4.85;;;;;;;29.02;52.17;99102.88;5156643;27;20058;-55
2023/05/15 06:26:58;;;;;;;7.25;4.07;;;;;;;28.85;51.48;99099.78;5156801;27;20053;-59
2023/05/15 06:29:24;;;;;;;12.25;4.10;;;;;;;29.38;52.14;99095.09;5156642;27;20301;-60
2023/05/15 06:31:50;;;;;;;6.75;4.18;;;;;;;29.89;51.33;99094.41;5156710;27;20149;-61
2023/05/15 06:34:16;;;;;;;7.95;3.70;;;;;;;29.95;50.52;99094.44;5156514;27;20134;-60
2023/05/15 06:36:42;;;;;;;11.38;4.28;;;;;;;30.15;51.08;99085.09;5156456;27;20046;-57
2023/05/15 06:39:09;;;;;;;8.65;3.80;;;;;;;30.16;51.48;99093.09;5156303;27;20102;-53
2023/05/15 06:41:35;;;;;;;9.60;4.45;;;;;;;28.77;52.91;99082.50;5156515;27;20051;-59
2023/05/15 06:44:01;;;;;;;8.32;4.20;;;;;;;30.05;52.06;99078.84;5156319;27;20056;-55
2023/05/15 06:46:28;;;;;;;6.88;3.70;;;;;;;28.80;52.27;99081.53;5156234;27;20046;-54
2023/05/15 06:48:54;;;;;;;12.90;3.72;;;;;;;30.16;51.34;99078.19;5155162;27;20054;-52
2023/05/15 06:51:20;;;;;;;8.25;4.10;;;;;;;29.95;50.46;99069.78;5154836;27;20046;-58
2023/05/15 06:53:55;;;;;;;6.13;3.13;;;;;;;30.19;50.08;99072.34;5156240;27;20051;-56
2023/05/15 06:56:21;;;;;;;9.13;3.45;;;;;;;29.49;50.48;99070.59;5155400;27;20119;-59
2023/05/15 06:58:47;;;;;;;6.53;3.40;;;;;;;29.74;49.20;99068.31;5155910;27;20331;-55
2023/05/15 07:01:13;;;;;;;11.20;3.85;;;;;;;30.36;49.62;99068.84;5155887;27;20043;-53
2023/05/15 07:03:41;;;;;;;7.45;3.55;;;;;;;30.76;48.21;99065.00;5155919;27;20153;-65
2023/05/15 07:06:07;;;;;;;14.02;3.70;;;;;;;30.02;49.11;99072.16;5155712;27;20337;-59
2023/05/15 07:08:33;;;;;;;6.60;3.60;;;;;;;29.93;49.47;99063.09;5155743;27;20050;-53
2023/05/15 07:11:00;;;;;;;5.82;3.22;;;;;;;28.99;48.03;99065.13;5155650;27;20435;-50
2023/05/15 07:13:26;;;;;;;14.10;3.70;;;;;;;29.75;46.92;99064.97;5155693;27;20097;-56
2023/05/15 07:15:52;;;;;;;9.20;3.28;;;;;;;28.73;46.49;99070.66;5155303;27;20061;-54
2023/05/15 07:18:18;;;;;;;7.22;3.38;;;;;;;30.78;44.74;99059.59;5154137;27;20058;-55
2023/05/15 07:21:11;;;;;;;6.72;3.58;;;;;;;31.38;44.88;99057.56;5155714;27;20049;-57
2023/05/15 07:23:37;;;;;;;20.45;3.63;;;;;;;30.65;46.28;99064.91;5139999;27;20047;-55
2023/05/15 07:26:04;;;;;;;9.20;2.97;;;;;;;29.80;45.88;99055.00;5155821;27;20073;-52
2023/05/15 07:28:31;;;;;;;10.73;3.13;;;;;;;29.15;44.50;99051.72;5155758;27;20065;-59
2023/05/15 07:31:03;;;;;;;7.68;3.17;;;;;;;28.84;44.29;99058.75;5155731;27;20096;-54
2023/05/15 07:33:29;;;;;;;6.00;3.00;;;;;;;29.18;44.12;99051.50;5155668;27;20416;-57
2023/05/15 07:35:56;;;;;;;13.88;3.22;;;;;;;28.92;43.75;99054.22;5155411;27;20042;-59
2023/05/15 07:38:22;;;;;;;5.43;3.05;;;;;;;28.12;44.20;99051.56;5155377;27;20051;-53
2023/05/15 07:40:48;;;;;;;8.32;3.13;;;;;;;27.85;44.63;99044.16;5154025;27;20134;-55
2023/05/15 07:43:16;;;;;;;13.07;3.10;;;;;;;27.90;45.43;99051.19;5155618;27;20051;-59
2023/05/15 07:45:43;;;;;;;7.85;2.95;;;;;;;28.53;45.83;99046.03;5155206;27;20130;-58
2023/05/15 07:48:13;;;;;;;5.82;3.00;;;;;;;29.94;44.93;99042.78;5155226;27;20446;-54
2023/05/15 07:50:39;;;;;;;3.83;3.03;;;;;;;29.75;44.16;99045.19;5155532;27;20408;-58
2023/05/15 07:53:05;;;;;;;14.95;2.88;;;;;;;30.72;43.64;99041.78;5155185;27;20137;-61
2023/05/15 07:55:32;;;;;;;6.70;2.90;;;;;;;30.69;43.65;99039.97;5155043;27;20057;-54
2023/05/15 07:57:58;;;;;;;7.03;3.58;;;;;;;29.50;44.89;99032.59;5155105;27;20051;-51
2023/05/15 08:00:25;;;;;;;5.18;3.08;;;;;;;30.42;43.86;99039.34;5155059;27;20332;-59
2023/05/15 08:02:51;;;;;;;4.70;2.85;;;;;;;30.35;43.12;99030.53;5155062;27;20123;-54
2023/05/15 08:05:17;;;;;;;5.00;3.00;;;;;;;30.11;43.70;99036.50;5156303;27;20057;-59
2023/05/15 08:07:45;;;;;;;13.50;3.15;;;;;;;29.75;43.03;99033.13;5157541;27;20051;-57
2023/05/15 08:10:11;;;;;;;6.07;2.75;;;;;;;28.53;44.14;99022.69;5158183;27;20127;-58
2023/05/15 08:12:38;;;;;;;6.63;3.10;;;;;;;27.87;44.14;99018.34;5158866;27;20043;-58
2023/05/15 08:15:05;;;;;;;10.95;3.17;;;;;;;27.81;44.69;99018.25;5158715;27;20343;-52
2023/05/15 08:17:31;;;;;;;5.22;2.72;;;;;;;27.74;44.54;99012.19;5158782;27;20051;-56
2023/05/15 08:19:57;;;;;;;8.45;3.20;;;;;;;29.27;44.48;99017.47;5158714;27;20046;-53
2023/05/15 08:22:23;;;;;;;5.75;2.50;;;;;;;27.57;44.30;99015.50;5158539;27;20043;-57
2023/05/15 08:24:49;;;;;;;5.43;2.50;;;;;;;27.05;45.13;99011.41;5158673;27;20050;-60
2023/05/15 08:27:15;;;;;;;9.18;2.85;;;;;;;26.49;45.59;99009.00;5158538;27;20050;-55
2023/05/15 08:29:42;;;;;;;5.13;2.78;;;;;;;26.90;44.48;99012.16;5158553;27;20179;-53
2023/05/15 08:32:09;;;;;;;6.97;3.22;;;;;;;27.11;45.61;99021.53;5158294;27;20459;-55
2023/05/15 08:34:35;;;;;;;4.63;2.55;;;;;;;26.36;45.23;99013.25;5158361;27;20107;-59
2023/05/15 08:37:03;;;;;;;5.90;2.88;;;;;;;25.90;46.53;99005.81;5156982;27;20053;-61
2023/05/15 08:39:29;;;;;;;5.90;2.97;;;;;;;26.79;45.73;99011.94;5157348;27;20055;-56
2023/05/15 08:41:59;;;;;;;7.22;2.90;;;;;;;25.93;46.40;99030.16;5158374;27;20058;-57
2023/05/15 08:44:27;;;;;;;6.68;2.63;;;;;;;26.18;45.87;99023.31;5158339;27;20440;-57
2023/05/15 08:46:55;;;;;;;6.00;2.67;;;;;;;25.94;46.45;99017.66;5157210;27;20057;-60
2023/05/15 08:49:37;;;;;;;6.07;3.00;;;;;;;26.08;46.25;99010.56;5157890;27;20057;-53
2023/05/15 08:52:04;;;;;;;3.30;3.00;;;;;;;26.65;47.06;99013.41;5158315;27;20423;-54
2023/05/15 08:54:30;;;;;;;12.95;3.30;;;;;;;26.77;47.67;99008.03;5158242;27;20050;-56
2023/05/15 08:56:56;;;;;;;3.08;2.80;;;;;;;26.44;47.76;99003.22;5157820;27;20361;-57
2023/05/15 08:59:22;;;;;;;5.35;2.50;;;;;;;26.54;47.13;99016.00;5157746;27;20057;-50
2023/05/15 09:01:48;;;;;;;4.75;2.35;;;;;;;26.73;44.99;99000.56;5156818;27;20061;-56
2023/05/15 09:04:15;;;;;;;10.55;3.55;;;;;;;26.18;45.02;99008.50;5157658;27;20103;-51
2023/05/15 09:06:43;;;;;;;5.05;2.67;;;;;;;26.75;46.14;98998.03;5158072;27;20333;-53
2023/05/15 09:09:12;;;;;;;8.23;2.80;;;;;;;27.98;45.15;98990.34;5157974;27;20059;-56
2023/05/15 09:11:42;;;;;;;8.25;2.95;;;;;;;26.24;46.75;98989.75;5157895;27;20054;-54
2023/05/15 09:14:08;;;;;;;8.18;3.60;;;;;;;26.01;46.72;98982.84;5157795;27;20483;-56
2023/05/15 09:16:35;;;;;;;5.95;3.20;;;;;;;27.55;46.52;98989.09;5156647;27;20051;-58
2023/05/15 09:19:01;;;;;;;6.88;3.70;;;;;;;26.40;47.27;98985.75;5157951;27;20072;-58
2023/05/15 09:21:30;;;;;;;8.05;2.85;;;;;;;25.47;48.23;98973.31;5157760;27;20129;-54
2023/05/15 09:24:15;;;;;;;5.20;2.60;;;;;;;25.50;49.28;98961.16;5157680;27;20117;-57
2023/05/15 09:26:42;;;;;;;8.18;2.78;;;;;;;25.90;49.52;98977.72;5157878;27;20369;-59
2023/05/15 09:29:08;;;;;;;7.28;3.10;;;;;;;26.01;48.57;98968.78;5157729;27;20493;-54
2023/05/15 09:31:34;;;;;;;11.43;3.08;;;;;;;26.34;47.63;98971.56;5157606;27;20145;-57
2023/05/15 09:34:03;;;;;;;7.18;3.08;;;;;;;26.50;47.45;98976.03;5157702;27;20050;-55
2023/05/15 09:36:31;;;;;;;6.82;3.00;;;;;;;26.00;47.85;98982.06;5157761;27;20077;-61
2023/05/15 09:38:58;;;;;;;4.75;2.60;;;;;;;25.33;47.36;98960.72;5157598;27;20118;-53
2023/05/15 09:41:25;;;;;;;3.75;2.78;;;;;;;26.02;47.98;98957.09;5157392;27;20416;-54
2023/05/15 09:43:51;;;;;;;9.45;3.15;;;;;;;25.33;48.42;98963.53;5157426;27;20058;-54
2023/05/15 09:46:17;;;;;;;8.60;2.83;;;;;;;24.99;48.81;98951.38;5157388;27;20373;-59
2023/05/15 09:48:43;;;;;;;5.55;2.90;;;;;;;25.42;48.31;98945.88;5157173;27;20100;-60
2023/05/15 09:51:14;;;;;;;9.77;3.10;;;;;;;25.73;48.23;98940.03;5157053;27;20050;-58
2023/05/15 09:53:41;;;;;;;10.32;2.97;;;;;;;25.59;46.97;98942.25;5156090;27;20199;-60
2023/05/15 09:56:09;;;;;;;6.78;2.60;;;;;;;25.51;45.99;98943.06;5157333;27;20051;-59
2023/05/15 09:58:35;;;;;;;7.63;2.50;;;;;;;26.08;45.41;98934.72;5157174;27;20343;-51
2023/05/15 10:01:02;;;;;;;3.45;2.75;;;;;;;26.17;45.17;98951.53;5157164;27;20091;-61
2023/05/15 10:03:28;;;;;;;11.10;2.70;;;;;;;26.86;46.36;98940.47;5156978;27;20055;-58
2023/05/15 10:06:00;;;;;;;6.03;2.58;;;;;;;25.63;46.40;98953.31;5156845;27;20324;-60
2023/05/15 10:08:28;;;;;;;9.63;2.80;;;;;;;26.05;46.75;98944.09;5156773;27;20046;-54
2023/05/15 10:10:58;;;;;;;4.05;2.83;;;;;;;27.30;46.71;98942.59;5156898;27;20111;-56
2023/05/15 10:13:25;;;;;;;7.18;2.58;;;;;;;26.59;45.04;98941.44;5156900;27;20512;-60
2023/05/15 10:15:53;;;;;;;4.32;3.05;;;;;;;26.20;46.94;98932.97;5156691;27;20050;-54
2023/05/15 10:18:23;;;;;;;3.50;3.00;;;;;;;26.17;47.01;98923.44;5157763;27;20050;-59
2023/05/15 10:20:50;;;;;;;15.20;3.00;;;;;;;26.68;46.69;98944.19;5140280;27;20051;-52
2023/05/15 10:23:18;;;;;;;4.40;3.03;;;;;;;26.23;47.19;98926.38;5156953;27;20149;-55
2023/05/15 10:25:53;;;;;;;5.82;3.45;;;;;;;26.83;48.05;98938.63;5156855;27;20078;-57
2023/05/15 10:28:20;;;;;;;7.57;3.70;;;;;;;26.87;47.87;98930.78;5155988;27;20479;-59
2023/05/15 10:30:47;;;;;;;8.15;3.35;;;;;;;27.57;48.07;98927.44;5156331;27;20107;-54
2023/05/15 10:33:14;;;;;;;10.63;3.22;;;;;;;26.89;45.66;98931.84;5156428;27;20046;-60
2023/05/15 10:35:41;;;;;;;13.35;2.90;;;;;;;26.05;45.61;98936.44;5156405;27;20149;-52
2023/05/15 10:38:09;;;;;;;11.77;3.13;;;;;;;25.96;45.61;98924.50;5156516;27;20138;-55
2023/05/15 10:40:37;;;;;;;8.80;3.45;;;;;;;26.17;45.51;98928.28;5156159;27;20380;-54
2023/05/15 10:43:04;;;;;;;6.88;3.20;;;;;;;25.81;46.61;98928.00;5154923;27;20133;-51
2023/05/15 10:45:32;;;;;;;12.20;3.22;;;;;;;24.73;47.30;98927.72;5155961;27;20078;-59
2023/05/15 10:47:58;;;;;;;8.45;3.35;;;;;;;25.75;46.75;98929.09;5156296;27;20069;-55
2023/05/15 10:50:26;;;;;;;8.05;3.00;;;;;;;25.71;46.05;98923.63;5156200;27;20105;-55
2023/05/15 10:52:52;;;;;;;5.40;2.80;;;;;;;25.94;45.05;98927.78;5156260;27;20047;-59
2023/05/15 10:55:18;;;;;;;7.63;2.90;;;;;;;26.24;44.65;98919.50;5155930;27;20400;-56
2023/05/15 10:57:45;;;;;;;10.73;2.90;;;;;;;25.69;44.39;98917.75;5156057;27;20050;-50
2023/05/15 11:00:27;;;;;;;10.52;3.00;;;;;;;25.33;45.78;98913.78;5156073;27;20073;-57
2023/05/15 11:02:55;;;;;;;15.13;3.38;;;;;;;26.29;46.34;98901.97;5155852;27;20042;-51
2023/05/15 11:05:22;;;;;;;9.15;3.40;;;;;;;25.87;46.04;98899.28;5156000;27;20567;-60
2023/05/15 11:08:21;;;;;;;5.65;3.00;;;;;;;25.84;44.55;98894.59;5154434;27;20047;-56
2023/05/15 11:10:47;;;;;;;6.15;3.25;;;;;;;25.22;44.75;98891.06;5142848;27;20133;-59
2023/05/15 11:13:13;;;;;;;9.18;3.10;;;;;;;25.46;45.72;98893.16;5156024;27;20098;-60
2023/05/15 11:15:44;;;;;;;9.57;3.15;;;;;;;25.52;46.44;98886.44;5156064;27;20046;-56
2023/05/15 11:18:10;;;;;;;12.52;3.55;;;;;;;25.31;45.91;98893.06;5155835;27;20420;-55
2023/05/15 11:20:40;;;;;;;5.97;3.13;;;;;;;25.28;46.24;98889.16;5155740;27;20051;-59
2023/05/15 11:23:07;;;;;;;9.10;3.78;;;;;;;25.85;46.55;98868.84;5155692;27;20129;-60
2023/05/15 11:25:35;;;;;;;6.63;3.42;;;;;;;25.33;45.57;98877.31;5155742;27;20392;-53
2023/05/15 11:28:02;;;;;;;7.32;3.03;;;;;;;25.22;45.17;98867.84;5154632;27;20188;-52
2023/05/15 11:30:37;;;;;;;8.88;3.00;;;;;;;25.17;45.41;98866.47;5154767;27;20062;-51
2023/05/15 11:33:07;;;;;;;6.43;3.03;;;;;;;24.85;45.82;98860.25;5155634;27;20057;-51
2023/05/15 11:35:36;;;;;;;15.95;3.50;;;;;;;24.75;46.19;98860.75;5155417;27;20211;-54
2023/05/15 11:38:04;;;;;;;6.03;2.90;;;;;;;25.29;46.40;98851.47;5155589;27;20065;-59
2023/05/15 11:40:31;;;;;;;5.85;3.10;;;;;;;25.01;46.25;98858.38;5154496;27;20137;-52
2023/05/15 11:43:03;;;;;;;10.52;3.40;;;;;;;25.01;46.43;98849.94;5155512;27;20133;-55
2023/05/15 11:45:32;;;;;;;5.53;2.60;;;;;;;24.70;47.19;98850.94;5155407;27;20347;-57